Map

Track Data

SID SEASON NUMBER BASIN SUBBASIN NAME ISO_TIME NATURE LAT LON WMO_WIND WMO_PRES WMO_AGENCY TRACK_TYPE DIST2LAND LANDFALL IFLAG USA_AGENCY USA_ATCF_ID USA_LAT USA_LON USA_RECORD USA_STATUS USA_WIND USA_PRES USA_SSHS USA_R34_NE USA_R34_SE USA_R34_SW USA_R34_NW USA_R50_NE USA_R50_SE USA_R50_SW USA_R50_NW USA_R64_NE USA_R64_SE USA_R64_SW USA_R64_NW USA_POCI USA_ROCI USA_RMW USA_EYE TOKYO_LAT TOKYO_LON TOKYO_GRADE TOKYO_WIND TOKYO_PRES TOKYO_R50_DIR TOKYO_R50_LONG TOKYO_R50_SHORT TOKYO_R30_DIR TOKYO_R30_LONG TOKYO_R30_SHORT TOKYO_LAND CMA_LAT CMA_LON CMA_CAT CMA_WIND CMA_PRES HKO_LAT HKO_LON HKO_CAT HKO_WIND HKO_PRES NEWDELHI_LAT NEWDELHI_LON NEWDELHI_GRADE NEWDELHI_WIND NEWDELHI_PRES NEWDELHI_CI NEWDELHI_DP NEWDELHI_POCI REUNION_LAT REUNION_LON REUNION_TYPE REUNION_WIND REUNION_PRES REUNION_TNUM REUNION_CI REUNION_RMW REUNION_R34_NE REUNION_R34_SE REUNION_R34_SW REUNION_R34_NW REUNION_R50_NE REUNION_R50_SE REUNION_R50_SW REUNION_R50_NW REUNION_R64_NE REUNION_R64_SE REUNION_R64_SW REUNION_R64_NW BOM_LAT BOM_LON BOM_TYPE BOM_WIND BOM_PRES BOM_TNUM BOM_CI BOM_RMW BOM_R34_NE BOM_R34_SE BOM_R34_SW BOM_R34_NW BOM_R50_NE BOM_R50_SE BOM_R50_SW BOM_R50_NW BOM_R64_NE BOM_R64_SE BOM_R64_SW BOM_R64_NW BOM_ROCI BOM_POCI BOM_EYE BOM_POS_METHOD BOM_PRES_METHOD NADI_LAT NADI_LON NADI_CAT NADI_WIND NADI_PRES WELLINGTON_LAT WELLINGTON_LON WELLINGTON_WIND WELLINGTON_PRES DS824_LAT DS824_LON DS824_STAGE DS824_WIND DS824_PRES TD9636_LAT TD9636_LON TD9636_STAGE TD9636_WIND TD9636_PRES TD9635_LAT TD9635_LON TD9635_WIND TD9635_PRES TD9635_ROCI NEUMANN_LAT NEUMANN_LON NEUMANN_CLASS NEUMANN_WIND NEUMANN_PRES MLC_LAT MLC_LON MLC_CLASS MLC_WIND MLC_PRES USA_GUST BOM_GUST BOM_GUST_PER REUNION_GUST REUNION_GUST_PER USA_SEAHGT USA_SEARAD_NE USA_SEARAD_SE USA_SEARAD_SW USA_SEARAD_NW STORM_SPEED STORM_DIR
1979174N07143 1979 47 WP MM ELLIS 1979-06-23 00:00:00 NR 6.50000 143.300 main 1031 1031 __________O___ -1 6.50000 143.300 1 7 277
1979174N07143 1979 47 WP MM ELLIS 1979-06-23 03:00:00 NR 6.54088 142.945 main 1035 1035 __________P___ -1 6.54088 142.945 1 7 277
1979174N07143 1979 47 WP MM ELLIS 1979-06-23 06:00:00 NR 6.58530 142.603 main 1036 1022 __________P___ -1 6.58530 142.603 1 7 278
1979174N07143 1979 47 WP MM ELLIS 1979-06-23 09:00:00 NR 6.63706 142.283 main 1022 1018 __________P___ -1 6.63706 142.283 1 6 281
1979174N07143 1979 47 WP MM ELLIS 1979-06-23 12:00:00 NR 6.70000 142.000 main 1020 1012 __________O___ -1 6.70000 142.000 1 5 285
1979174N07143 1979 47 WP MM ELLIS 1979-06-23 15:00:00 NR 6.77578 141.758 main 1022 1014 __________P___ -1 6.77578 141.758 1 5 289
1979174N07143 1979 47 WP MM ELLIS 1979-06-23 18:00:00 NR 6.85729 141.543 main 1020 1012 __________P___ -1 6.85729 141.543 1 5 291
1979174N07143 1979 47 WP MM ELLIS 1979-06-23 21:00:00 NR 6.93516 141.330 main 1012 1012 __________P___ -1 6.93516 141.330 1 5 288
1979174N07143 1979 47 WP MM ELLIS 1979-06-24 00:00:00 NR 7.00000 141.100 main 1016 1006 __________O___ -1 7.00000 141.100 1 5 280
1979174N07143 1979 47 WP MM ELLIS 1979-06-24 03:00:00 NR 7.02726 140.805 main 1006 997 __________P___ -1 7.02726 140.805 1 6 274
1979174N07143 1979 47 WP MM ELLIS 1979-06-24 06:00:00 NR 7.04260 140.492 main 997 994 __________P___ -1 7.04260 140.492 1 6 273
1979174N07143 1979 47 WP MM ELLIS 1979-06-24 09:00:00 NR 7.06164 140.183 main 999 990 __________P___ -1 7.06164 140.183 1 6 276
1979174N07143 1979 47 WP MM ELLIS 1979-06-24 12:00:00 NR 7.10000 139.900 main 990 980 __________O___ -1 7.10000 139.900 1 5 283
1979174N07143 1979 47 WP MM ELLIS 1979-06-24 15:00:00 NR 7.17427 139.671 main 990 981 __________P___ -1 7.17427 139.671 1 5 292
1979174N07143 1979 47 WP MM ELLIS 1979-06-24 18:00:00 NR 7.26987 139.470 main 991 983 __________P___ -1 7.26987 139.470 1 4 298
1979174N07143 1979 47 WP MM ELLIS 1979-06-24 21:00:00 NR 7.38054 139.284 main 993 989 __________P___ -1 7.38054 139.284 1 4 302
1979174N07143 1979 47 WP MM ELLIS 1979-06-25 00:00:00 NR 7.50000 139.100 main 995 991 __________O___ -1 7.50000 139.100 1 5 301
1979174N07143 1979 47 WP MM ELLIS 1979-06-25 03:00:00 NR 7.61781 138.892 main 998 994 __________P___ -1 7.61781 138.892 1 5 300
1979174N07143 1979 47 WP MM ELLIS 1979-06-25 06:00:00 NR 7.74250 138.685 main 1001 1001 __________P___ -1 7.74250 138.685 1 5 302
1979174N07143 1979 47 WP MM ELLIS 1979-06-25 09:00:00 NR 7.87094 138.486 main 1016 1012 __________P___ -1 7.87094 138.486 1 5 304
1979174N07143 1979 47 WP MM ELLIS 1979-06-25 12:00:00 NR 8.00000 138.300 main 1019 1016 __________O___ -1 8.00000 138.300 1 4 306
1979174N07143 1979 47 WP MM ELLIS 1979-06-25 15:00:00 NR 8.12496 138.132 main 1024 1024 __________P___ -1 8.12496 138.132 1 4 308
1979174N07143 1979 47 WP MM ELLIS 1979-06-25 18:00:00 NR 8.24996 137.977 main 1032 1032 __________P___ -1 8.24996 137.977 1 4 310
1979174N07143 1979 47 WP MM ELLIS 1979-06-25 21:00:00 NR 8.37497 137.835 main 1048 1048 __________P___ -1 8.37497 137.835 1 4 312
1979174N07143 1979 47 WP MM ELLIS 1979-06-26 00:00:00 NR 8.50000 137.700 main 1056 1054 __________O___ -1 8.50000 137.700 1 4 313
1979174N07143 1979 47 WP MM ELLIS 1979-06-26 03:00:00 NR 8.62499 137.560 main 1065 1063 __________P___ -1 8.62499 137.560 1 4 313
1979174N07143 1979 47 WP MM ELLIS 1979-06-26 06:00:00 NR 8.74999 137.427 main 1072 1072 __________P___ -1 8.74999 137.427 1 4 315
1979174N07143 1979 47 WP MM ELLIS 1979-06-26 09:00:00 NR 8.87500 137.307 main 1092 1090 __________P___ -1 8.87500 137.307 1 3 318
1979174N07143 1979 47 WP MM ELLIS 1979-06-26 12:00:00 NR 9.00000 137.200 main 1101 1101 __________O___ -1 9.00000 137.200 1 3 323
1979174N07143 1979 47 WP MM ELLIS 1979-06-26 15:00:00 NR 9.12497 137.115 main 1110 1110 __________P___ -1 9.12497 137.115 1 3 328
1979174N07143 1979 47 WP MM ELLIS 1979-06-26 18:00:00 NR 9.24996 137.042 main 1120 1120 __________P___ -1 9.24996 137.042 1 3 331
1979174N07143 1979 47 WP MM ELLIS 1979-06-26 21:00:00 NR 9.37497 136.974 main 1142 1140 __________P___ -1 9.37497 136.974 1 3 330
1979174N07143 1979 47 WP MM ELLIS 1979-06-27 00:00:00 NR 9.50000 136.900 main 1151 1142 __________O___ -1 9.50000 136.900 1 3 327
1979174N07143 1979 47 WP MM ELLIS 1979-06-27 03:00:00 NR 9.61687 136.811 main 1142 1133 __________P___ -1 9.61687 136.811 1 3 323
1979174N07143 1979 47 WP MM ELLIS 1979-06-27 06:00:00 NR 9.73499 136.715 main 1133 1124 __________P___ -1 9.73499 136.715 1 3 321
1979174N07143 1979 47 WP MM ELLIS 1979-06-27 09:00:00 NR 9.86061 136.611 main 1127 1116 __________P___ -1 9.86061 136.611 1 3 321
1979174N07143 1979 47 WP MM ELLIS 1979-06-27 12:00:00 NR 10.0000 136.500 main 1118 1110 __________O___ -1 10.0000 136.500 1 4 323
1979174N07143 1979 47 WP MM ELLIS 1979-06-27 15:00:00 NR 10.1769 136.370 main 1113 1094 __________P___ -1 10.1769 136.370 1 5 325
1979174N07143 1979 47 WP MM ELLIS 1979-06-27 18:00:00 NR 10.3650 136.235 main 1097 1089 __________P___ -1 10.3650 136.235 1 5 325
1979174N07143 1979 47 WP MM ELLIS 1979-06-27 21:00:00 NR 10.5457 136.108 main 1089 1065 __________P___ -1 10.5457 136.108 1 7 319
1979174N07143 1979 47 WP MM ELLIS 1979-06-28 00:00:00 TS 10.8600 135.800 1008 tokyo main 1067 1046 __O_______O___ -1 11.5000 135.000 0 17 1008 10.7000 136.000 1 7 308
1979174N07143 1979 47 WP MM ELLIS 1979-06-28 03:00:00 TS 10.9733 135.545 main 1038 1016 __P_______P___ -1 11.3450 134.762 0 18 1007 10.7875 135.936 1 5 286
1979174N07143 1979 47 WP MM ELLIS 1979-06-28 06:00:00 TS 11.0000 135.296 1006 tokyo main 1016 984 __O_______P___ -1 11.2000 134.500 0 19 1006 10.8499 135.892 1 5 272
1979174N07143 1979 47 WP MM ELLIS 1979-06-28 09:00:00 TS 10.9950 135.032 main 984 984 __P_______P___ -1 11.0775 134.212 0 19 1006 10.9125 135.852 1 3 270
1979174N07143 1979 47 WP MM ELLIS 1979-06-28 12:00:00 TS 11.0000 135.029 1006 tokyo main 984 984 __O_______O___ -1 11.0000 134.000 0 19 1006 11.0000 135.800 1 2 52
1979174N07143 1979 47 WP MM ELLIS 1979-06-28 15:00:00 TS 11.0870 135.156 main 1008 1008 __P_______P___ -1 10.9752 133.963 0 19 1006 11.1381 135.735 1 4 50
1979174N07143 1979 47 WP MM ELLIS 1979-06-28 18:00:00 TS 11.2439 135.322 1006 tokyo main 1021 1021 __O_______P___ -1 11.0000 134.000 0 19 1006 11.3049 135.652 1 6 43
1979174N07143 1979 47 WP MM ELLIS 1979-06-28 21:00:00 NR 11.4943 135.544 main 1050 1044 __P_______P___ -1 11.0520 133.925 0 11.4943 135.544 1 5 10
1979174N07143 1979 47 WP MM ELLIS 1979-06-29 00:00:00 TS 11.7000 135.400 1004 tokyo main 1044 1029 O_P______OO___ jtwc_wp WP061979 11.7000 135.400 20 -1 11.1431 133.799 0 11.7000 135.400 TC 20 11.7000 135.400 1 20 6 324
1979174N07143 1979 47 WP MM ELLIS 1979-06-29 03:00:00 TS 11.9402 135.209 main 1029 1010 P_P______PP___ WP061979 11.9575 135.215 20 -1 11.2667 133.634 0 11.9575 135.215 TC 20 11.9229 135.203 1 20 6 320
1979174N07143 1979 47 WP MM ELLIS 1979-06-29 06:00:00 TS 12.1831 134.989 1004 tokyo main 1011 991 O_P______OP___ jtwc_wp WP061979 12.2000 135.000 20 -1 11.4164 133.445 0 12.2000 135.000 TC 20 12.1576 134.973 1 20 7 315
1979174N07143 1979 47 WP MM ELLIS 1979-06-29 09:00:00 TS 12.4062 134.739 main 982 964 P_P______PP___ WP061979 12.4150 134.743 20 -1 11.5855 133.247 0 12.4150 134.743 TC 20 12.3885 134.731 1 20 7 314
1979174N07143 1979 47 WP MM ELLIS 1979-06-29 12:00:00 TS 12.6462 134.492 1004 tokyo main 964 947 OOP______OO___ jtwc_wp WP061979 12.6000 134.500 20 -1 13.2000 134.400 2 1004 0 0 0 11.7678 133.052 0 12.6000 134.500 TC 20 12.6000 134.500 1 20 6 313
1979174N07143 1979 47 WP MM ELLIS 1979-06-29 15:00:00 TS 12.8145 134.291 main 947 928 PPP______PP___ WP061979 12.7574 134.342 22 -1 13.1426 134.127 2 1004 0 0 11.9567 132.876 0 12.7574 134.342 TC 22 12.7836 134.315 1 21 5 310
1979174N07143 1979 47 WP MM ELLIS 1979-06-29 18:00:00 TS 12.9520 134.125 1004 tokyo main 930 912 OOP______OP___ jtwc_wp WP061979 12.9000 134.200 25 -1 13.1000 133.900 2 1004 0 0 0 12.1460 132.732 0 12.9000 134.200 TC 25 12.9448 134.142 1 22 4 306
1979174N07143 1979 47 WP MM ELLIS 1979-06-29 21:00:00 TS 13.0709 133.929 main 912 891 PPP______PP___ WP061979 13.0575 134.000 25 -1 13.0849 133.743 2 1003 0 0 12.3292 132.636 0 13.0575 134.000 TC 25 13.0836 133.974 1 23 5 293
1979174N07143 1979 47 WP MM ELLIS 1979-06-30 00:00:00 TS 13.1353 133.682 1002 tokyo main 891 873 OOO______OO___ jtwc_wp WP061979 13.2000 133.800 25 -1 13.1000 133.600 2 1002 0 0 0 12.5000 132.600 1 23 1003 13.2000 133.800 TC 25 13.2000 133.800 1 25 5 287
1979174N07143 1979 47 WP MM ELLIS 1979-06-30 03:00:00 TS 13.2020 133.484 main 873 852 PPP______PP___ WP061979 13.3149 133.657 27 -1 13.1500 133.408 2 1002 0 0 12.6412 132.667 1 26 1002 13.3149 133.657 TC 27 13.3005 133.619 1 26 4 288
1979174N07143 1979 47 WP MM ELLIS 1979-06-30 06:00:00 TS 13.2589 133.296 1002 tokyo main 855 833 OOO______OP___ jtwc_wp WP061979 13.4000 133.500 30 -1 13.2000 133.200 2 1002 0 0 0 12.8000 132.700 1 29 1002 13.4000 133.500 TC 30 13.3798 133.430 1 27 4 286
1979174N07143 1979 47 WP MM ELLIS 1979-06-30 09:00:00 TS 13.3164 133.067 main 833 814 PPP______PP___ WP061979 13.4575 133.257 30 -1 13.2000 132.985 2 1002 0 0 13.0225 132.608 1 29 1002 13.4575 133.257 TC 30 13.4442 133.226 1 28 4 286
1979174N07143 1979 47 WP MM ELLIS 1979-06-30 12:00:00 TS 13.3800 132.860 1002 tokyo main 814 792 OOO______OO___ jtwc_wp WP061979 13.5000 133.000 30 -1 13.2000 132.800 2 1002 0 0 0 13.2000 132.500 1 29 1002 13.5000 133.000 TC 30 13.5000 133.000 1 30 4 287
1979174N07143 1979 47 WP MM ELLIS 1979-06-30 15:00:00 TS 13.4207 132.724 main 792 781 PPP______PP___ WP061979 13.5499 132.815 30 -1 13.2349 132.707 2 1001 0 0 13.2075 132.522 1 29 1001 13.5499 132.815 TC 30 13.5612 132.759 1 31 3 286
1979174N07143 1979 47 WP MM ELLIS 1979-06-30 18:00:00 TS 13.4630 132.559 1000 tokyo main 783 751 OOO______OP___ jtwc_wp WP061979 13.6000 132.600 30 -1 13.3000 132.600 2 1000 0 0 0 13.2000 132.500 1 29 1000 13.6000 132.600 TC 30 13.6148 132.495 1 32 4 286
1979174N07143 1979 47 WP MM ELLIS 1979-06-30 21:00:00 TS 13.5453 132.283 main 751 722 PPP______PP___ WP061979 13.6576 132.265 32 -1 13.4000 132.388 2 1000 0 0 13.3500 132.288 1 29 1000 13.6576 132.265 TC 32 13.6611 132.209 1 33 6 284
1979174N07143 1979 47 WP MM ELLIS 1979-07-01 00:00:00 TS 13.6095 131.962 1000 tokyo main 722 690 OOOO_____OO___ jtwc_wp WP061979 13.7000 131.900 35 0 13.5000 132.100 2 1000 0 0 0 13.5000 132.000 1 29 1000 13.4000 132.000 TD 30 1000 13.7000 131.900 TC 35 13.7000 131.900 2 35 6 277
1979174N07143 1979 47 WP MM ELLIS 1979-07-01 03:00:00 TS 13.6197 131.675 main 690 658 PPPP_____PP___ WP061979 13.6999 131.607 37 0 13.5500 131.772 2 997 0 0 13.5149 131.765 1 33 998 13.4401 131.750 TD 32 998 13.6999 131.607 TC 37 13.7239 131.588 2 36 6 272
1979174N07143 1979 47 WP MM ELLIS 1979-07-01 06:00:00 TS 13.6291 131.370 40 994 tokyo main 658 629 OOOO_____OP___ jtwc_wp WP061979 13.7000 131.300 40 0 13.6000 131.400 3 40 994 0 9 75 75 0 13.5000 131.500 2 38 996 13.5000 131.500 TS 35 997 13.7000 131.300 TC 40 13.7422 131.252 2 37 6 275
1979174N07143 1979 47 WP MM ELLIS 1979-07-01 09:00:00 TS 13.6794 131.032 main 619 588 PPPP_____PP___ WP061979 13.7424 130.930 40 0 13.6999 131.015 3 40 992 0 9 75 75 13.5349 131.187 2 38 996 13.5924 131.237 TS 37 995 13.7424 130.930 TC 40 13.7644 130.891 2 38 7 280
1979174N07143 1979 47 WP MM ELLIS 1979-07-01 12:00:00 TS 13.7500 130.633 40 990 tokyo main 581 540 OOOO_____OO___ jtwc_wp WP061979 13.8000 130.500 40 0 13.8000 130.600 3 40 990 0 9 75 75 0 13.6000 130.800 2 38 996 13.7000 130.900 TS 40 994 13.8000 130.500 TC 40 13.8000 130.500 2 40 8 279
1979174N07143 1979 47 WP MM ELLIS 1979-07-01 15:00:00 TS 13.8081 130.170 main 540 493 PPPP_____PP___ WP061979 13.8426 130.000 45 0 13.8499 130.165 3 42 988 0 9 77 77 13.6850 130.330 2 43 994 13.7925 130.445 TS 45 992 13.8426 130.000 TC 45 13.8362 130.078 2 43 9 278
1979174N07143 1979 47 WP MM ELLIS 1979-07-01 18:00:00 TS 13.8817 129.672 45 986 tokyo main 493 448 OOOO_____OP___ jtwc_wp WP061979 13.9000 129.500 50 0 13.9000 129.700 3 45 986 0 9 80 80 0 13.8000 129.800 3 48 992 13.9000 129.900 STS 50 990 13.9000 129.500 TC 50 13.8900 129.630 2 47 10 280
1979174N07143 1979 47 WP MM ELLIS 1979-07-01 21:00:00 TS 13.9831 129.183 main 448 406 PPPP_____PP___ WP061979 13.9848 129.092 52 0 13.9774 129.207 3 50 983 0 9 90 90 13.9350 129.242 3 48 988 14.0426 129.300 STS 52 985 13.9848 129.092 TC 52 13.9737 129.166 2 51 10 284
1979174N07143 1979 47 WP MM ELLIS 1979-07-02 00:00:00 TS 14.1167 128.700 55 980 tokyo main 406 376 OOOO_____OO___ jtwc_wp WP061979 14.1000 128.700 55 0 14.1000 128.700 4 55 980 9 45 45 9 100 100 0 14.1000 128.700 3 48 985 14.2000 128.700 STS 55 980 14.1000 128.700 TC 55 14.1000 128.700 2 55 10 287
1979174N07143 1979 47 WP MM ELLIS 1979-07-02 03:00:00 TS 14.2697 128.228 main 375 350 PPPP_____PP___ WP061979 14.2200 128.257 57 0 14.2849 128.193 4 55 977 9 47 47 9 125 125 14.2848 128.242 3 48 982 14.3349 128.162 STS 55 977 14.2200 128.257 TC 57 14.2735 128.254 2 57 10 291
1979174N07143 1979 47 WP MM ELLIS 1979-07-02 06:00:00 TS 14.4649 127.768 55 975 tokyo main 358 335 OOOO_____OP___ jtwc_wp WP061979 14.4000 127.800 60 0 14.5000 127.700 4 55 975 9 50 50 9 150 150 0 14.5000 127.800 3 48 980 14.5000 127.700 STS 55 975 14.4000 127.800 TC 60 14.4896 127.807 2 60 10 297
1979174N07143 1979 47 WP MM ELLIS 1979-07-02 09:00:00 TS 14.7163 127.329 main 325 296 PPPP_____PP___ WP061979 14.6849 127.358 62 0 14.7073 127.250 4 55 972 9 50 50 9 150 150 14.7424 127.307 3 53 977 14.7423 127.342 STS 55 972 14.6849 127.358 TC 62 14.7359 127.357 2 62 10 301
1979174N07143 1979 47 WP MM ELLIS 1979-07-02 12:00:00 TS 14.9833 126.883 55 970 tokyo main 296 259 OOOO_____OO___ jtwc_wp WP061979 15.0000 126.900 65 1 14.9000 126.800 4 55 970 9 50 50 9 150 150 0 15.0000 126.800 3 58 975 15.0000 127.000 STS 55 970 15.0000 126.900 TC 65 15.0000 126.900 4 65 10 298
1979174N07143 1979 47 WP MM ELLIS 1979-07-02 15:00:00 TS 15.2010 126.395 main 259 232 PPPP_____PP___ WP061979 15.2500 126.400 70 1 15.0125 126.300 4 60 965 9 50 50 9 150 150 15.2500 126.285 3 63 972 15.2075 126.557 STS 60 965 15.2500 126.400 TC 70 15.2361 126.428 4 70 10 295
1979174N07143 1979 47 WP MM ELLIS 1979-07-02 18:00:00 TS 15.4316 125.908 65 960 tokyo main 232 225 OOOO_____OP___ jtwc_wp WP061979 15.5000 125.900 75 1 15.2000 125.800 5 65 960 9 50 50 9 150 150 0 15.5000 125.800 4 68 970 15.4000 126.100 T 65 960 15.5000 125.900 TC 75 15.4898 125.949 4 75 10 299
1979174N07143 1979 47 WP MM ELLIS 1979-07-02 21:00:00 TS 15.7076 125.460 main 229 224 PPPP_____PP___ WP061979 15.7849 125.435 80 1 15.6200 125.320 5 70 957 9 65 50 9 162 137 15.7198 125.392 4 77 962 15.5623 125.707 T 77 957 15.7849 125.435 TC 80 15.7736 125.471 4 80 10 306
1979174N07143 1979 47 WP MM ELLIS 1979-07-03 00:00:00 TS 16.0333 125.033 75 955 tokyo main 236 230 OOOO_____OO___ jtwc_wp WP061979 16.1000 125.000 85 2 16.1000 124.900 5 75 955 8 80 50 8 175 125 0 16.0000 125.000 5 87 955 15.8000 125.300 ST 90 955 16.1000 125.000 TC 85 16.1000 125.000 4 85 11 311
1979174N07143 1979 47 WP MM ELLIS 1979-07-03 03:00:00 TS 16.4077 124.616 main 230 181 PPPP_____PP___ WP061979 16.4198 124.607 82 1 16.4572 124.600 5 75 955 8 80 50 8 175 125 16.4350 124.543 5 87 955 16.2126 124.793 ST 87 957 16.4198 124.607 TC 82 16.5018 124.547 4 83 11 315
1979174N07143 1979 47 WP MM ELLIS 1979-07-03 06:00:00 TS 16.8237 124.200 75 955 tokyo main 181 139 OOOO_____OP___ jtwc_wp WP061979 16.8000 124.200 80 1 16.8000 124.300 5 75 955 8 80 50 1 175 125 0 16.9000 124.100 5 87 955 16.7000 124.300 ST 85 960 16.8000 124.200 TC 80 16.9419 124.100 4 82 12 317
1979174N07143 1979 47 WP MM ELLIS 1979-07-03 09:00:00 TS 17.2680 123.772 main 142 111 PPPP_____PP___ WP061979 17.3076 123.700 80 1 17.2150 123.873 5 75 957 8 75 45 1 175 125 17.2422 123.757 5 87 957 17.1497 123.950 ST 85 962 17.3076 123.700 TC 80 17.3861 123.653 4 81 12 317
1979174N07143 1979 47 WP MM ELLIS 1979-07-03 12:00:00 TS 17.7000 123.333 75 960 tokyo main 105 67 OOOO_____OO___ jtwc_wp WP061979 17.8000 123.200 80 1 17.6000 123.400 5 75 960 1 70 40 1 175 125 0 17.6000 123.400 5 87 960 17.6000 123.600 ST 85 965 17.8000 123.200 TC 80 17.8000 123.200 4 80 12 314
1979174N07143 1979 47 WP MM ELLIS 1979-07-03 15:00:00 TS 18.0785 122.896 main 67 21 PPPP_____PP___ WP061979 18.1297 122.807 75 1 17.8573 122.965 5 72 962 1 60 45 1 150 125 18.1225 122.930 5 82 962 18.0799 123.138 ST 85 967 18.1297 122.807 TC 75 18.1519 122.732 4 76 11 310
1979174N07143 1979 47 WP MM ELLIS 1979-07-03 18:00:00 TS 18.4112 122.426 70 965 tokyo main 10 10 OOOO_____OP___ jtwc_wp WP061979 18.4000 122.400 70 1 18.1000 122.500 5 70 965 9 50 50 9 125 125 0 18.6000 122.400 4 77 965 18.5000 122.600 ST 85 970 18.4000 122.400 TC 70 18.4671 122.257 4 72 11 303
1979174N07143 1979 47 WP MM ELLIS 1979-07-03 21:00:00 TS 18.7077 121.890 main 39 39 PPPP_____PP___ WP061979 18.7075 121.872 67 1 18.4500 121.965 5 65 970 9 40 40 9 102 102 18.8449 121.857 4 72 967 18.7876 121.992 ST 85 970 18.7075 121.872 TC 67 18.7487 121.779 4 68 12 298
1979174N07143 1979 47 WP MM ELLIS 1979-07-04 00:00:00 TS 18.9667 121.333 60 975 tokyo main 55 54 OOOO_____OO___ jtwc_wp WP061979 19.0000 121.300 65 1 18.8000 121.400 4 60 975 9 30 30 9 80 80 0 19.0000 121.300 4 68 970 19.0000 121.400 ST 85 970 19.0000 121.300 TC 65 19.0000 121.300 4 65 11 296
1979174N07143 1979 47 WP MM ELLIS 1979-07-04 03:00:00 TS 19.2100 120.814 main 67 67 PPPP_____PP___ WP061979 19.2725 120.728 62 0 19.0647 120.865 4 60 980 9 30 30 9 80 80 19.2000 120.735 4 68 972 19.2070 120.957 ST 72 975 19.2725 120.728 TC 62 19.2436 120.873 4 63 11 295
1979174N07143 1979 47 WP MM ELLIS 1979-07-04 06:00:00 TS 19.4263 120.307 60 985 tokyo main 103 103 OOOO_____OP___ jtwc_wp WP061979 19.5000 120.200 60 0 19.3000 120.300 4 60 985 9 30 30 9 80 80 0 19.4000 120.200 4 68 975 19.4000 120.500 STS 60 980 19.5000 120.200 TC 60 19.4578 120.439 4 62 10 294
1979174N07143 1979 47 WP MM ELLIS 1979-07-04 09:00:00 TS 19.6264 119.823 main 153 153 PPPP_____PP___ WP061979 19.6643 119.830 60 0 19.5649 119.665 4 60 985 9 30 30 9 80 80 19.6144 119.772 4 68 975 19.6076 119.880 STS 60 980 19.6643 119.830 TC 60 19.6432 119.961 4 61 10 291
1979174N07143 1979 47 WP MM ELLIS 1979-07-04 12:00:00 TS 19.8000 119.283 60 985 tokyo main 206 206 OOOO_____OO___ jtwc_wp WP061979 19.8000 119.400 60 0 19.8000 119.000 4 60 985 9 30 30 9 80 80 0 19.8000 119.300 4 68 975 19.8000 119.200 STS 60 980 19.8000 119.400 TC 60 19.8000 119.400 2 60 12 286
1979174N07143 1979 47 WP MM ELLIS 1979-07-04 15:00:00 TS 19.9527 118.612 main 275 275 PPPP_____PP___ WP061979 19.9651 118.710 60 0 19.9722 118.357 4 60 985 9 30 30 9 80 80 19.9076 118.637 4 63 977 19.9719 118.580 STS 60 981 19.9651 118.710 TC 60 19.9344 118.675 2 58 14 282
1979174N07143 1979 47 WP MM ELLIS 1979-07-04 18:00:00 TS 20.0733 117.862 60 985 tokyo main 341 308 OOOO_____OP___ jtwc_wp WP061979 20.1000 117.900 60 0 20.1000 117.700 4 60 985 9 30 30 9 80 80 0 20.0000 117.900 3 58 980 20.1000 117.900 STS 60 982 20.1000 117.900 TC 60 20.0398 117.872 2 57 15 278
1979174N07143 1979 47 WP MM ELLIS 1979-07-04 21:00:00 TS 20.1630 117.068 main 308 286 PPPP_____PP___ WP061979 20.1652 117.070 57 0 20.2076 116.977 4 60 982 9 30 30 9 100 100 20.1572 117.200 3 58 980 20.1581 117.035 STS 60 983 20.1652 117.070 TC 57 20.1250 117.059 2 56 15 276
1979174N07143 1979 47 WP MM ELLIS 1979-07-05 00:00:00 TS 20.2333 116.317 60 980 tokyo main 284 259 OOOO_____OO___ jtwc_wp WP061979 20.2000 116.300 55 0 20.3000 116.300 4 60 980 9 30 30 9 120 120 0 20.3000 116.500 3 58 980 20.2000 116.200 STS 60 984 20.2000 116.300 TC 55 20.2000 116.300 2 55 13 276
1979174N07143 1979 47 WP MM ELLIS 1979-07-05 03:00:00 TS 20.2967 115.714 main 259 231 PPPP_____PP___ WP061979 20.2419 115.712 55 0 20.3919 115.792 4 60 980 9 30 30 9 122 90 20.3575 115.777 3 58 980 20.2995 115.590 STS 57 984 20.2419 115.712 TC 55 20.2476 115.700 2 55 11 277
1979174N07143 1979 47 WP MM ELLIS 1979-07-05 06:00:00 TS 20.3658 115.177 60 980 tokyo main 231 216 OOOO_____OP___ jtwc_wp WP061979 20.3000 115.200 55 0 20.5000 115.300 4 60 980 9 30 30 4 125 60 0 20.4000 115.100 3 58 980 20.4000 115.100 STS 55 984 20.3000 115.200 TC 55 20.2948 115.160 2 55 10 278
1979174N07143 1979 47 WP MM ELLIS 1979-07-05 09:00:00 TS 20.4414 114.634 main 214 184 PPPP_____PP___ WP061979 20.3698 114.657 55 0 20.6351 114.657 4 60 980 9 30 30 4 125 60 20.4770 114.535 3 58 982 20.4271 114.657 STS 52 984 20.3698 114.657 TC 55 20.3697 114.641 2 55 10 281
1979174N07143 1979 47 WP MM ELLIS 1979-07-05 12:00:00 TS 20.5667 114.083 60 980 tokyo main 184 133 OOOO_____OO___ jtwc_wp WP061979 20.5000 114.100 55 0 20.8000 114.000 4 60 980 9 30 30 4 125 60 0 20.6000 114.000 3 58 985 20.5000 114.200 STS 50 984 20.5000 114.100 TC 55 20.5000 114.100 2 55 11 288
1979174N07143 1979 47 WP MM ELLIS 1979-07-05 15:00:00 TS 20.7814 113.497 main 133 94 PPPP_____PP___ WP061979 20.7197 113.522 52 0 20.9997 113.435 4 55 982 9 4 112 55 20.7924 113.400 3 53 985 20.7201 113.615 STS 47 985 20.7197 113.522 TC 52 20.7367 113.489 2 52 12 293
1979174N07143 1979 47 WP MM ELLIS 1979-07-05 18:00:00 TS 21.0392 112.887 50 985 tokyo main 94 44 OOOO_____OP___ jtwc_wp WP061979 21.0000 112.900 50 0 21.2000 112.900 4 50 985 0 4 100 50 0 21.0000 112.800 3 48 985 21.0000 113.000 TS 45 986 21.0000 112.900 TC 50 21.0256 112.849 2 50 13 294
1979174N07143 1979 47 WP MM ELLIS 1979-07-05 21:00:00 TS 21.2938 112.266 main 44 10 PPPP_____PP___ WP061979 21.3074 112.215 47 0 21.3574 112.342 4 45 988 0 4 100 50 21.1867 112.288 3 43 988 21.2602 112.433 TS 42 987 21.3074 112.215 TC 47 21.3267 112.184 2 47 13 292
1979174N07143 1979 47 WP MM ELLIS 1979-07-06 00:00:00 TS 21.5056 111.633 40 992 tokyo main 0 0 OOOO_____OO___ jtwc_wp WP061979 21.6000 111.500 45 0 21.5000 111.800 3 40 992 0 4 100 50 0 21.3000 111.700 2 38 992 21.5000 111.900 TS 40 988 21.6000 111.500 TC 45 21.6000 111.500 2 45 13 285
1979174N07143 1979 47 WP MM ELLIS 1979-07-06 03:00:00 TS 21.6177 110.967 main 0 0 PPP______PP___ WP061979 21.8230 110.795 35 0 21.6421 111.315 3 995 0 4 21.2880 110.872 2 28 994 TS 21.8230 110.795 TC 35 21.8177 110.803 2 35 12 276
1979174N07143 1979 47 WP MM ELLIS 1979-07-06 06:00:00 TS 21.6364 110.318 998 tokyo main 0 0 OOO______OO___ jtwc_wp WP061979 22.0000 110.100 25 -1 21.8000 110.800 2 998 0 0 0 21.2000 110.000 0 19 997 22.0000 110.100 TC 25 22.0000 110.100 1 25 12 266
1979174N07143 1979 47 WP MM ELLIS 1979-07-06 09:00:00 TS 21.5350 109.699 main 0 0 _PP___________ WP061979 -1 22.0002 110.158 2 999 0 0 21.0698 109.240 0 18 997 TC 1 12 268
1979174N07143 1979 47 WP MM ELLIS 1979-07-06 12:00:00 TS 21.6000 109.050 1000 tokyo main 0 0 _OO___________ -1 22.2000 109.500 2 1000 0 0 0 21.0000 108.600 0 17 998 11 281
1979174N07143 1979 47 WP MM ELLIS 1979-07-06 15:00:00 TS 21.7419 108.543 main 0 0 _PP___________ -1 22.3494 108.957 2 1000 0 0 21.1344 108.128 0 17 999 10 288
1979174N07143 1979 47 WP MM ELLIS 1979-07-06 18:00:00 TS 21.9000 108.050 1000 tokyo main 0 0 _OO___________ -1 22.5000 108.400 2 1000 0 0 0 21.3000 107.700 0 17 1000 10 285
1979174N07143 1979 47 WP MM ELLIS 1979-07-06 21:00:00 TS 22.0158 107.459 main 0 0 _PP___________ -1 22.6884 107.736 2 1001 0 0 21.3432 107.182 0 17 1001 12 280
1979174N07143 1979 47 WP MM ELLIS 1979-07-07 00:00:00 TS 22.1000 106.800 1002 tokyo main 0 _OO___________ -1 22.9000 107.000 2 1002 0 0 0 21.3000 106.600 0 17 1002 12 278

Digital Typhoon Data and Search

About IBTrACS Database

This database is a web-friendly format of International Best Track Archive for Climate Stewardship (IBTrACS), a global best track data archive curated by NOAA dating back to 1842.

Updated: 2021-11-26